createdAt,value
2018-06-28T00:01:02.493Z,54.28
2018-06-28T00:03:28.458Z,54.70
2018-06-28T00:05:54.476Z,54.81
2018-06-28T00:08:20.430Z,54.50
2018-06-28T00:10:46.402Z,54.38
2018-06-28T00:13:12.357Z,54.74
2018-06-28T00:15:38.333Z,54.50
2018-06-28T00:18:04.303Z,55.75
2018-06-28T00:20:30.274Z,54.93
2018-06-28T00:22:56.220Z,55.24
2018-06-28T00:25:22.150Z,55.37
2018-06-28T00:27:48.113Z,55.68
2018-06-28T00:30:14.073Z,55.64
2018-06-28T00:32:40.001Z,55.29
2018-06-28T00:35:05.994Z,55.28
2018-06-28T00:37:31.950Z,55.07
2018-06-28T00:39:57.919Z,55.25
2018-06-28T00:42:23.905Z,55.87
2018-06-28T00:44:49.862Z,55.23
2018-06-28T00:47:15.809Z,55.38
2018-06-28T00:49:41.784Z,55.25
2018-06-28T00:52:07.745Z,55.03
2018-06-28T00:54:33.715Z,54.79
2018-06-28T00:56:59.688Z,55.81
2018-06-28T00:59:25.675Z,56.01
2018-06-28T01:01:51.630Z,56.18
2018-06-28T01:04:17.589Z,55.98
2018-06-28T01:06:43.563Z,55.61
2018-06-28T01:09:09.533Z,55.96
2018-06-28T01:11:35.485Z,55.84
2018-06-28T01:14:01.454Z,55.32
2018-06-28T01:16:27.438Z,56.18
2018-06-28T01:18:53.400Z,55.69
2018-06-28T01:21:19.370Z,55.73
2018-06-28T01:23:45.345Z,55.31
2018-06-28T01:26:11.316Z,56.03
2018-06-28T01:28:37.268Z,56.06
2018-06-28T01:31:03.208Z,55.52
2018-06-28T01:33:29.168Z,56.16
2018-06-28T01:35:55.106Z,55.84
2018-06-28T01:38:21.074Z,55.41
2018-06-28T01:40:47.029Z,55.83
2018-06-28T01:43:12.985Z,56.22
2018-06-28T01:45:38.930Z,56.23
2018-06-28T01:48:04.884Z,56.66
2018-06-28T01:50:30.840Z,56.67
2018-06-28T01:52:56.865Z,56.34
2018-06-28T01:55:22.807Z,56.75
2018-06-28T01:57:48.764Z,57.15
2018-06-28T02:00:14.712Z,57.31
2018-06-28T02:02:40.686Z,56.93
2018-06-28T02:05:06.622Z,57.33
2018-06-28T02:07:32.581Z,56.36
2018-06-28T02:09:58.517Z,57.12
2018-06-28T02:12:24.503Z,56.48
2018-06-28T02:14:50.440Z,56.79
2018-06-28T02:17:16.402Z,57.06
2018-06-28T02:19:42.361Z,57.15
2018-06-28T02:22:08.333Z,57.95
2018-06-28T02:24:34.283Z,57.08
2018-06-28T02:27:00.273Z,57.49
2018-06-28T02:29:26.216Z,57.54
2018-06-28T02:31:52.186Z,56.75
2018-06-28T02:34:18.138Z,57.53
2018-06-28T02:36:44.073Z,58.43
2018-06-28T02:39:10.045Z,58.25
2018-06-28T02:41:36.020Z,58.21
2018-06-28T02:44:01.963Z,58.20
2018-06-28T02:46:27.914Z,58.06
2018-06-28T02:48:53.871Z,58.48
2018-06-28T02:51:19.855Z,58.65
2018-06-28T02:53:45.811Z,59.01
2018-06-28T02:56:11.793Z,57.96
2018-06-28T02:58:37.768Z,57.50
2018-06-28T03:01:03.722Z,57.38
2018-06-28T03:03:29.662Z,58.14
2018-06-28T03:05:55.623Z,58.17
2018-06-28T03:08:21.573Z,57.35
2018-06-28T03:10:47.506Z,57.04
2018-06-28T03:13:13.441Z,57.20
2018-06-28T03:15:39.436Z,58.31
2018-06-28T03:18:05.380Z,57.89
2018-06-28T03:20:31.325Z,57.50
2018-06-28T03:22:57.313Z,57.15
2018-06-28T03:25:23.277Z,56.87
2018-06-28T03:27:49.224Z,56.79
2018-06-28T03:30:15.186Z,57.81
2018-06-28T03:32:41.217Z,58.05
2018-06-28T03:35:07.199Z,57.26
2018-06-28T03:37:33.302Z,57.68
2018-06-28T03:39:59.221Z,57.06
2018-06-28T03:42:25.195Z,57.53
2018-06-28T03:44:51.176Z,57.42
2018-06-28T03:47:17.118Z,57.50
2018-06-28T03:49:43.088Z,56.64
2018-06-28T03:52:09.077Z,57.26
2018-06-28T03:54:35.033Z,57.30
2018-06-28T03:57:01.072Z,56.21
2018-06-28T03:59:27.042Z,56.90
2018-06-28T04:01:53.001Z,56.25
2018-06-28T04:04:18.945Z,56.85
2018-06-28T04:06:44.919Z,56.75
2018-06-28T04:09:10.889Z,56.41
2018-06-28T04:11:36.852Z,57.65
2018-06-28T04:16:35.287Z,56.69
2018-06-28T04:19:01.205Z,56.59
2018-06-28T04:21:27.192Z,57.15
2018-06-28T04:23:53.170Z,56.94
2018-06-28T04:26:19.112Z,56.29
2018-06-28T04:28:45.089Z,56.92
2018-06-28T04:31:11.081Z,56.92
2018-06-28T04:33:37.044Z,58.00
2018-06-28T04:36:03.002Z,56.90
2018-06-28T04:38:28.991Z,57.46
2018-06-28T04:40:55.003Z,57.18
2018-06-28T04:43:20.901Z,57.23
2018-06-28T04:45:46.860Z,57.35
2018-06-28T04:48:12.855Z,56.91
2018-06-28T04:50:38.806Z,56.85
2018-06-28T04:53:04.766Z,57.25
2018-06-28T04:55:30.757Z,57.74
2018-06-28T04:57:56.693Z,57.55
2018-06-28T05:00:22.667Z,57.67
2018-06-28T05:02:48.600Z,57.33
2018-06-28T05:05:14.565Z,56.60
2018-06-28T05:07:40.514Z,56.98
2018-06-28T05:10:06.475Z,56.46
2018-06-28T05:12:32.415Z,56.41
2018-06-28T05:14:58.376Z,55.75
2018-06-28T05:17:24.341Z,56.90
2018-06-28T05:19:50.311Z,56.53
2018-06-28T05:22:16.299Z,56.63
2018-06-28T05:24:42.266Z,56.57
2018-06-28T05:27:08.245Z,57.57
2018-06-28T05:29:34.212Z,57.49
2018-06-28T05:32:00.320Z,57.30
2018-06-28T05:34:26.269Z,57.08
2018-06-28T05:36:52.251Z,56.61
2018-06-28T05:39:18.267Z,55.68
2018-06-28T05:41:44.221Z,55.23
2018-06-28T05:44:10.212Z,54.32
2018-06-28T05:46:36.161Z,53.39
2018-06-28T05:49:02.163Z,52.63
2018-06-28T05:51:28.145Z,52.59
2018-06-28T05:53:54.121Z,52.07
2018-06-28T05:56:20.108Z,52.29
2018-06-28T05:58:46.181Z,52.38
2018-06-28T06:01:12.149Z,51.35
2018-06-28T06:03:38.122Z,53.74
2018-06-28T06:06:04.340Z,53.39
2018-06-28T06:08:30.301Z,53.79
2018-06-28T06:10:56.261Z,53.82
2018-06-28T06:13:22.211Z,52.65
2018-06-28T06:15:48.173Z,51.85
2018-06-28T06:18:14.154Z,52.08
2018-06-28T06:20:40.168Z,53.24
2018-06-28T06:23:06.137Z,51.19
2018-06-28T06:25:32.169Z,52.37
2018-06-28T06:27:58.069Z,52.37
2018-06-28T06:30:24.054Z,53.80
2018-06-28T06:32:50.020Z,52.42
2018-06-28T06:35:16.007Z,52.17
2018-06-28T06:37:42.002Z,52.04
2018-06-28T06:40:08.001Z,53.10
2018-06-28T06:42:34.006Z,51.09
2018-06-28T06:44:59.972Z,51.07
2018-06-28T06:47:25.926Z,51.61
2018-06-28T06:49:51.915Z,51.03
2018-06-28T06:52:17.871Z,51.00
2018-06-28T06:54:43.880Z,51.13
2018-06-28T06:57:09.873Z,50.79
2018-06-28T06:59:35.862Z,50.41
2018-06-28T07:02:01.812Z,51.35
2018-06-28T07:04:27.791Z,52.53
2018-06-28T07:06:53.761Z,53.55
2018-06-28T07:09:19.760Z,53.58
2018-06-28T07:11:45.756Z,54.54
2018-06-28T07:14:11.728Z,54.41
2018-06-28T07:16:37.724Z,54.31
2018-06-28T07:19:03.758Z,54.82
2018-06-28T07:21:29.729Z,53.40
2018-06-28T07:23:55.859Z,52.71
2018-06-28T07:26:21.728Z,52.48
2018-06-28T07:28:47.656Z,51.12
2018-06-28T07:31:13.620Z,52.20
2018-06-28T07:33:39.577Z,52.74
2018-06-28T07:36:05.517Z,52.15
2018-06-28T07:38:31.507Z,52.84
2018-06-28T07:40:57.462Z,51.02
2018-06-28T07:43:23.456Z,52.61
2018-06-28T07:45:49.430Z,51.77
2018-06-28T07:48:15.396Z,50.24
2018-06-28T07:50:41.375Z,50.34
2018-06-28T07:53:07.345Z,50.87
2018-06-28T07:55:33.327Z,50.25
2018-06-28T07:57:59.296Z,50.46
2018-06-28T08:00:25.323Z,51.01
2018-06-28T08:02:51.308Z,50.91
2018-06-28T08:05:17.266Z,50.86
2018-06-28T08:07:43.232Z,51.63
2018-06-28T08:10:09.193Z,51.71
2018-06-28T08:12:35.176Z,49.96
2018-06-28T08:15:01.134Z,49.77
2018-06-28T08:17:27.110Z,49.99
2018-06-28T08:19:53.093Z,50.77
2018-06-28T08:22:19.065Z,50.00
2018-06-28T08:24:45.109Z,49.94
2018-06-28T08:27:11.094Z,49.32
2018-06-28T08:29:37.066Z,49.83
2018-06-28T08:32:03.029Z,49.00
2018-06-28T08:34:28.981Z,48.88
2018-06-28T08:36:54.977Z,49.87
2018-06-28T08:39:20.942Z,48.66
2018-06-28T08:41:46.931Z,49.20
2018-06-28T08:44:12.889Z,49.28
2018-06-28T08:46:38.876Z,48.14
2018-06-28T08:49:04.859Z,49.24
2018-06-28T08:51:30.832Z,48.61
2018-06-28T08:53:56.821Z,48.97
2018-06-28T08:56:22.842Z,48.04
2018-06-28T08:58:48.785Z,48.89
2018-06-28T09:01:14.745Z,48.64
2018-06-28T09:03:40.747Z,48.93
2018-06-28T09:06:06.724Z,48.17
2018-06-28T09:08:32.757Z,48.60
2018-06-28T09:10:58.722Z,48.77
2018-06-28T09:13:24.691Z,48.42
2018-06-28T09:15:50.673Z,48.32
2018-06-28T09:18:16.641Z,48.72
2018-06-28T09:20:42.628Z,47.42
2018-06-28T09:23:08.680Z,46.92
2018-06-28T09:25:34.562Z,47.93
2018-06-28T09:28:00.581Z,48.83
2018-06-28T09:30:26.557Z,49.05
2018-06-28T09:32:52.527Z,49.07
2018-06-28T09:35:18.582Z,49.06
2018-06-28T09:37:44.562Z,48.71
2018-06-28T09:40:10.552Z,48.57
2018-06-28T09:42:36.543Z,49.24
2018-06-28T09:45:02.495Z,49.33
2018-06-28T09:47:29.663Z,49.88
2018-06-28T09:49:55.691Z,50.19
2018-06-28T09:52:21.647Z,49.91
2018-06-28T09:54:47.696Z,49.24
2018-06-28T09:57:13.663Z,50.26
2018-06-28T09:59:39.616Z,49.71
2018-06-28T10:02:05.573Z,49.27
2018-06-28T10:04:31.544Z,49.41
2018-06-28T10:06:57.559Z,50.22
2018-06-28T10:09:23.489Z,49.20
2018-06-28T10:11:49.466Z,49.36
2018-06-28T10:14:15.463Z,50.27
2018-06-28T10:16:41.501Z,49.24
2018-06-28T10:19:07.469Z,49.58
2018-06-28T10:21:33.461Z,49.57
2018-06-28T10:23:59.458Z,49.64
2018-06-28T10:26:25.410Z,49.95
2018-06-28T10:28:51.415Z,49.17
2018-06-28T10:31:17.474Z,49.07
2018-06-28T10:33:43.437Z,49.44
2018-06-28T10:36:09.427Z,49.51
2018-06-28T10:38:35.428Z,49.54
2018-06-28T10:41:01.503Z,49.54
2018-06-28T10:43:27.465Z,49.62
2018-06-28T10:45:53.556Z,49.33
2018-06-28T10:48:19.528Z,48.57
2018-06-28T10:50:45.501Z,48.50
2018-06-28T10:53:11.472Z,49.01
2018-06-28T10:55:37.605Z,49.60
2018-06-28T10:58:03.616Z,49.96
2018-06-28T11:00:29.691Z,49.55
2018-06-28T11:02:55.569Z,49.31
2018-06-28T11:05:21.523Z,48.83
2018-06-28T11:07:47.514Z,49.79
2018-06-28T11:10:13.534Z,49.86
2018-06-28T11:12:39.530Z,49.86
2018-06-28T11:15:05.489Z,49.80
2018-06-28T11:17:31.471Z,49.24
2018-06-28T11:19:57.433Z,49.04
2018-06-28T11:22:23.414Z,48.97
2018-06-28T11:24:49.434Z,49.30
2018-06-28T11:27:15.483Z,48.87
2018-06-28T11:29:41.473Z,47.81
2018-06-28T11:32:07.433Z,48.05
2018-06-28T11:34:33.385Z,47.96
2018-06-28T11:36:59.397Z,48.13
2018-06-28T11:39:25.353Z,46.54
2018-06-28T11:41:51.314Z,47.56
2018-06-28T11:44:17.279Z,47.41
2018-06-28T11:46:43.323Z,46.31
2018-06-28T11:49:09.327Z,46.17
2018-06-28T11:51:35.316Z,45.75
2018-06-28T11:54:01.293Z,46.55
2018-06-28T11:56:27.256Z,46.89
2018-06-28T11:58:53.311Z,45.86
2018-06-28T12:01:19.293Z,46.35
2018-06-28T12:03:45.304Z,46.72
2018-06-28T12:06:11.281Z,45.93
2018-06-28T12:08:37.240Z,46.33
2018-06-28T12:11:03.217Z,45.55
2018-06-28T12:13:29.213Z,44.11
2018-06-28T12:15:55.340Z,44.57
2018-06-28T12:18:21.309Z,44.79
2018-06-28T12:20:47.268Z,44.22
2018-06-28T12:23:13.297Z,43.34
2018-06-28T12:25:39.279Z,44.71
2018-06-28T12:28:05.243Z,44.37
2018-06-28T12:30:31.251Z,45.13
2018-06-28T12:32:57.242Z,45.37
2018-06-28T12:35:23.221Z,44.99
2018-06-28T12:37:49.227Z,44.72
2018-06-28T12:40:15.204Z,45.40
2018-06-28T12:42:41.209Z,44.84
2018-06-28T12:45:07.197Z,44.32
2018-06-28T12:47:33.226Z,44.37
2018-06-28T12:49:59.216Z,42.87
2018-06-28T12:52:25.161Z,42.99
2018-06-28T12:54:51.138Z,42.77
2018-06-28T12:57:17.121Z,45.02
2018-06-28T12:59:43.151Z,45.57
2018-06-28T13:02:09.103Z,46.71
2018-06-28T13:04:35.148Z,47.42
2018-06-28T13:07:01.123Z,46.75
2018-06-28T13:09:27.076Z,46.87
2018-06-28T13:11:53.050Z,47.55
2018-06-28T13:14:19.153Z,47.40
2018-06-28T13:16:45.133Z,47.33
2018-06-28T13:19:11.118Z,47.04
2018-06-28T13:21:37.077Z,46.74
2018-06-28T13:24:03.136Z,46.32
2018-06-28T13:26:29.110Z,45.48
2018-06-28T13:28:55.086Z,45.80
2018-06-28T13:31:21.214Z,46.75
2018-06-28T13:33:47.227Z,46.42
2018-06-28T13:36:13.160Z,47.09
2018-06-28T13:38:39.125Z,46.69
2018-06-28T13:41:05.248Z,46.45
2018-06-28T13:43:31.196Z,46.81
2018-06-28T13:45:57.167Z,46.53
2018-06-28T13:48:23.158Z,45.96
2018-06-28T13:50:49.147Z,44.91
2018-06-28T13:53:15.096Z,45.87
2018-06-28T13:55:41.089Z,45.83
2018-06-28T13:58:07.073Z,45.27
2018-06-28T14:00:33.024Z,45.49
2018-06-28T14:02:59.039Z,45.81
2018-06-28T14:05:25.012Z,45.70
2018-06-28T14:07:50.981Z,45.03
2018-06-28T14:10:16.998Z,45.09
2018-06-28T14:12:42.984Z,46.09
2018-06-28T14:15:09.011Z,45.00
2018-06-28T14:17:34.968Z,45.10
2018-06-28T14:20:00.921Z,44.63
2018-06-28T14:22:26.901Z,45.57
2018-06-28T14:24:52.865Z,44.38
2018-06-28T14:27:18.816Z,44.81
2018-06-28T14:29:44.752Z,45.23
2018-06-28T14:32:10.706Z,45.91
2018-06-28T14:34:36.664Z,44.79
2018-06-28T14:37:02.630Z,44.77
2018-06-28T14:39:28.646Z,44.49
2018-06-28T14:41:54.708Z,45.02
2018-06-28T14:44:20.651Z,45.71
2018-06-28T14:46:46.675Z,45.55
2018-06-28T14:49:12.622Z,45.40
2018-06-28T14:51:38.589Z,45.53
2018-06-28T14:54:04.541Z,45.67
2018-06-28T14:56:30.524Z,46.40
2018-06-28T14:58:56.475Z,46.90
2018-06-28T15:01:22.442Z,47.11
2018-06-28T15:03:48.397Z,46.85
2018-06-28T15:06:14.370Z,46.10
2018-06-28T15:08:40.425Z,46.89
2018-06-28T15:11:06.393Z,47.42
2018-06-28T15:13:32.360Z,46.50
2018-06-28T15:15:58.372Z,46.42
2018-06-28T15:18:24.340Z,47.38
2018-06-28T15:20:50.309Z,46.95
2018-06-28T15:23:16.297Z,48.01
2018-06-28T15:25:42.267Z,47.34
2018-06-28T15:28:08.232Z,48.68
2018-06-28T15:30:34.184Z,48.40
2018-06-28T15:33:00.327Z,48.81
2018-06-28T15:35:26.272Z,49.43
2018-06-28T15:37:52.246Z,48.64
2018-06-28T15:40:18.205Z,49.51
2018-06-28T15:42:44.193Z,51.86
2018-06-28T15:45:10.215Z,52.37
2018-06-28T15:47:36.163Z,52.11
2018-06-28T15:50:02.154Z,50.89
2018-06-28T15:52:28.118Z,52.85
2018-06-28T15:54:54.080Z,52.64
2018-06-28T15:57:20.031Z,50.63
2018-06-28T15:59:45.966Z,49.88
2018-06-28T16:02:11.944Z,49.83
2018-06-28T16:04:37.911Z,50.97
2018-06-28T16:07:03.868Z,51.62
2018-06-28T16:09:29.812Z,51.32
2018-06-28T16:11:55.770Z,50.97
2018-06-28T16:14:21.724Z,50.76
2018-06-28T16:16:47.722Z,51.84
2018-06-28T16:19:13.825Z,51.71
2018-06-28T16:21:39.795Z,51.48
2018-06-28T16:24:05.797Z,50.62
2018-06-28T16:26:31.756Z,51.41
2018-06-28T16:28:57.701Z,51.53
2018-06-28T16:31:23.687Z,50.68
2018-06-28T16:33:49.637Z,51.14
2018-06-28T16:36:15.597Z,50.67
2018-06-28T16:38:41.549Z,50.78
2018-06-28T16:41:07.584Z,50.85
2018-06-28T16:43:33.552Z,50.84
2018-06-28T16:45:59.525Z,51.68
2018-06-28T16:48:25.549Z,51.27
2018-06-28T16:50:51.488Z,51.13
2018-06-28T16:53:17.571Z,50.78
2018-06-28T16:55:43.539Z,51.33
2018-06-28T16:58:09.500Z,52.13
2018-06-28T17:00:35.462Z,53.66
2018-06-28T17:03:01.515Z,54.61
2018-06-28T17:05:27.513Z,55.11
2018-06-28T17:07:53.631Z,55.56
2018-06-28T17:10:19.612Z,55.69
2018-06-28T17:12:45.736Z,56.79
2018-06-28T17:15:11.709Z,56.34
2018-06-28T17:17:37.716Z,56.24
2018-06-28T17:20:03.681Z,55.08
2018-06-28T17:22:29.767Z,54.39
2018-06-28T17:24:55.740Z,52.79
2018-06-28T17:27:21.715Z,53.87
2018-06-28T17:29:47.676Z,53.06
2018-06-28T17:32:13.883Z,53.00
2018-06-28T17:34:39.900Z,53.42
2018-06-28T17:37:05.871Z,51.52
2018-06-28T17:39:31.861Z,50.65
2018-06-28T17:41:57.825Z,49.52
2018-06-28T17:44:23.845Z,49.70
2018-06-28T17:46:49.859Z,50.47
2018-06-28T17:49:15.859Z,49.33
2018-06-28T17:51:41.801Z,49.48
2018-06-28T17:54:07.925Z,51.93
2018-06-28T17:56:33.915Z,51.27
2018-06-28T17:58:59.901Z,50.29
2018-06-28T18:01:25.900Z,51.56
2018-06-28T18:03:51.894Z,52.17
2018-06-28T18:06:17.835Z,52.32
2018-06-28T18:08:43.844Z,53.51
2018-06-28T18:11:09.774Z,54.16
2018-06-28T18:13:35.746Z,55.29
2018-06-28T18:16:01.705Z,55.23
2018-06-28T18:18:27.677Z,57.07
2018-06-28T18:20:53.682Z,57.58
2018-06-28T18:23:19.706Z,57.45
2018-06-28T18:25:45.677Z,57.04
2018-06-28T18:28:11.619Z,57.37
2018-06-28T18:30:37.603Z,58.11
2018-06-28T18:33:03.562Z,57.90
2018-06-28T18:35:29.516Z,56.88
2018-06-28T18:37:55.601Z,57.35
2018-06-28T18:40:21.591Z,57.67
2018-06-28T18:42:47.592Z,56.52
2018-06-28T18:45:13.607Z,56.11
2018-06-28T18:47:39.602Z,57.26
2018-06-28T18:50:06.690Z,57.49
2018-06-28T18:52:32.676Z,56.94
2018-06-28T18:54:58.638Z,56.42
2018-06-28T18:57:24.571Z,56.26
2018-06-28T18:59:50.650Z,55.95
2018-06-28T19:02:16.659Z,55.87
2018-06-28T19:04:42.626Z,54.80
2018-06-28T19:07:08.582Z,56.04
2018-06-28T19:09:34.550Z,55.92
2018-06-28T19:12:00.550Z,56.17
2018-06-28T19:14:26.743Z,56.38
2018-06-28T19:16:53.755Z,56.16
2018-06-28T19:19:19.734Z,56.16
2018-06-28T19:21:45.718Z,56.65
2018-06-28T19:24:11.731Z,56.96
2018-06-28T19:26:37.693Z,56.03
2018-06-28T19:29:03.665Z,55.21
2018-06-28T19:31:29.613Z,55.17
2018-06-28T19:33:55.536Z,56.38
2018-06-28T19:36:21.676Z,56.50
2018-06-28T19:38:47.658Z,55.34
2018-06-28T19:41:13.638Z,56.81
2018-06-28T19:43:39.671Z,56.16
2018-06-28T19:46:05.669Z,56.27
2018-06-28T19:48:31.644Z,57.41
2018-06-28T19:50:57.658Z,57.53
2018-06-28T19:53:23.704Z,57.31
2018-06-28T19:55:49.855Z,57.75
2018-06-28T19:58:15.873Z,57.18
2018-06-28T20:00:41.885Z,56.92
2018-06-28T20:03:07.909Z,56.97
2018-06-28T20:05:33.934Z,55.20
2018-06-28T20:07:59.948Z,54.88
2018-06-28T20:10:25.959Z,54.55
2018-06-28T20:12:52.008Z,55.70
2018-06-28T20:15:18.011Z,55.00
2018-06-28T20:17:44.006Z,53.78
2018-06-28T20:20:09.988Z,54.57
2018-06-28T20:22:35.983Z,54.37
2018-06-28T20:25:01.934Z,53.76
2018-06-28T20:27:27.903Z,53.46
2018-06-28T20:29:53.910Z,53.48
2018-06-28T20:32:19.883Z,54.01
2018-06-28T20:34:45.872Z,53.18
2018-06-28T20:37:11.921Z,53.62
2018-06-28T20:39:37.884Z,54.24
2018-06-28T20:42:03.865Z,54.33
2018-06-28T20:44:29.857Z,53.73
2018-06-28T20:46:55.837Z,54.19
2018-06-28T20:49:21.825Z,53.48
2018-06-28T20:51:47.821Z,54.00
2018-06-28T20:54:13.864Z,53.17
2018-06-28T20:56:39.832Z,53.61
2018-06-28T20:59:05.894Z,53.70
2018-06-28T21:01:31.913Z,52.93
2018-06-28T21:03:57.900Z,53.22
2018-06-28T21:06:23.890Z,54.04
2018-06-28T21:08:49.864Z,54.26
2018-06-28T21:11:15.838Z,54.18
2018-06-28T21:13:41.864Z,52.76
2018-06-28T21:16:07.837Z,53.83
2018-06-28T21:18:33.797Z,54.74
2018-06-28T21:20:59.795Z,54.35
2018-06-28T21:23:25.759Z,54.06
2018-06-28T21:25:51.743Z,54.01
2018-06-28T21:28:17.700Z,53.42
2018-06-28T21:30:43.687Z,52.74
2018-06-28T21:33:09.658Z,53.62
2018-06-28T21:35:35.631Z,53.12
2018-06-28T21:38:01.592Z,53.74
2018-06-28T21:40:27.534Z,54.05
2018-06-28T21:42:53.519Z,53.01
2018-06-28T21:45:19.463Z,53.34
2018-06-28T21:47:45.444Z,54.88
2018-06-28T21:50:11.450Z,53.61
2018-06-28T21:52:37.424Z,53.68
2018-06-28T21:55:03.425Z,53.15
2018-06-28T21:57:29.397Z,53.53
2018-06-28T21:59:55.465Z,53.14
2018-06-28T22:02:21.448Z,53.05
2018-06-28T22:04:47.413Z,53.75
2018-06-28T22:07:13.428Z,52.74
2018-06-28T22:09:39.394Z,52.95
2018-06-28T22:12:05.337Z,51.94
2018-06-28T22:14:31.319Z,52.62
2018-06-28T22:16:57.322Z,52.74
2018-06-28T22:19:23.259Z,53.03
2018-06-28T22:21:49.199Z,53.12
2018-06-28T22:24:15.205Z,52.49
2018-06-28T22:26:41.205Z,53.41
2018-06-28T22:29:07.272Z,52.93
2018-06-28T22:31:33.245Z,53.23
2018-06-28T22:33:59.196Z,52.70
2018-06-28T22:36:25.167Z,53.46
2018-06-28T22:38:51.229Z,53.48
2018-06-28T22:41:17.191Z,52.49
2018-06-28T22:43:43.140Z,53.46
2018-06-28T22:46:09.086Z,53.50
2018-06-28T22:48:35.056Z,53.53
2018-06-28T22:51:01.002Z,53.24
2018-06-28T22:53:27.035Z,53.74
2018-06-28T22:55:53.013Z,53.51
2018-06-28T22:58:18.964Z,53.45
2018-06-28T23:00:44.915Z,52.85
2018-06-28T23:03:10.860Z,53.57
2018-06-28T23:05:36.872Z,54.36
2018-06-28T23:08:02.841Z,53.35
2018-06-28T23:10:28.811Z,52.94
2018-06-28T23:12:54.769Z,53.86
2018-06-28T23:15:20.706Z,54.08
2018-06-28T23:17:46.697Z,53.55
2018-06-28T23:20:12.660Z,53.36
2018-06-28T23:22:38.630Z,53.72
2018-06-28T23:25:04.583Z,53.77
2018-06-28T23:27:30.580Z,53.84
2018-06-28T23:29:56.539Z,54.09
2018-06-28T23:32:22.506Z,53.39
2018-06-28T23:34:48.476Z,53.93
2018-06-28T23:37:14.416Z,54.06
2018-06-28T23:39:40.411Z,53.85
2018-06-28T23:42:06.439Z,54.22
2018-06-28T23:44:35.915Z,53.99
2018-06-28T23:47:01.883Z,53.73
2018-06-28T23:49:27.872Z,53.94
2018-06-28T23:51:53.806Z,54.15
2018-06-28T23:54:19.836Z,52.79
2018-06-28T23:56:45.824Z,52.88
2018-06-28T23:59:11.750Z,52.88
